createdAt,value
2023-01-28T00:02:10.438Z,5.57
2023-01-28T00:04:38.606Z,4.50
2023-01-28T00:07:06.808Z,8.80
2023-01-28T00:09:34.916Z,4.60
2023-01-28T00:12:03.138Z,4.73
2023-01-28T00:14:31.271Z,5.33
2023-01-28T00:17:00.729Z,4.47
2023-01-28T00:19:28.853Z,3.70
2023-01-28T00:21:56.886Z,4.47
2023-01-28T00:24:25.000Z,6.33
2023-01-28T00:26:53.166Z,5.37
2023-01-28T00:29:21.289Z,4.53
2023-01-28T00:31:49.420Z,4.03
2023-01-28T00:34:19.235Z,5.00
2023-01-28T00:36:57.386Z,4.93
2023-01-28T00:39:26.436Z,3.90
2023-01-28T00:41:55.024Z,4.57
2023-01-28T00:44:23.999Z,5.63
2023-01-28T00:46:52.186Z,5.97
2023-01-28T00:49:21.723Z,5.87
2023-01-28T00:51:50.128Z,6.33
2023-01-28T00:54:18.471Z,6.00
2023-01-28T00:56:46.535Z,4.13
2023-01-28T00:59:14.671Z,5.27
2023-01-28T01:01:42.738Z,5.07
2023-01-28T01:04:11.019Z,4.30
2023-01-28T01:06:41.924Z,5.17
2023-01-28T01:09:13.269Z,5.90
2023-01-28T01:11:41.792Z,4.13
2023-01-28T01:14:12.237Z,3.77
2023-01-28T01:16:40.691Z,4.23
2023-01-28T01:19:09.511Z,6.80
2023-01-28T01:21:37.732Z,5.47
2023-01-28T01:24:08.004Z,4.53
2023-01-28T01:26:36.082Z,5.13
2023-01-28T01:29:04.278Z,4.73
2023-01-28T01:31:32.390Z,5.20
2023-01-28T01:34:00.454Z,5.57
2023-01-28T01:36:28.583Z,4.37
2023-01-28T01:38:57.014Z,4.67
2023-01-28T01:41:30.008Z,4.57
2023-01-28T01:44:01.071Z,4.77
2023-01-28T01:46:39.710Z,4.27
2023-01-28T01:49:16.993Z,3.70
2023-01-28T01:51:49.088Z,6.50
2023-01-28T01:54:19.022Z,4.83
2023-01-28T01:56:51.850Z,4.70
2023-01-28T01:59:27.309Z,4.00
2023-01-28T02:01:56.303Z,4.60
2023-01-28T02:04:30.389Z,4.73
2023-01-28T02:07:01.436Z,4.87
2023-01-28T02:09:33.028Z,4.73
2023-01-28T02:12:06.393Z,4.73
2023-01-28T02:14:38.510Z,6.23
2023-01-28T02:17:06.671Z,4.07
2023-01-28T02:19:40.984Z,5.17
2023-01-28T02:22:38.663Z,4.10
2023-01-28T02:25:39.124Z,4.53
2023-01-28T02:28:28.730Z,4.20
2023-01-28T02:31:06.057Z,4.27
2023-01-28T02:33:38.955Z,4.03
2023-01-28T02:36:18.209Z,3.60
2023-01-28T02:38:50.801Z,3.53
2023-01-28T02:41:25.113Z,4.00
2023-01-28T02:43:54.623Z,4.27
2023-01-28T02:46:52.477Z,3.17
2023-01-28T02:49:28.068Z,4.27
2023-01-28T02:52:21.122Z,3.73
2023-01-28T02:54:58.239Z,3.90
2023-01-28T02:57:38.887Z,3.50
2023-01-28T03:00:18.701Z,4.13
2023-01-28T03:02:54.572Z,3.77
2023-01-28T03:05:26.492Z,3.10
2023-01-28T03:07:55.605Z,3.10
2023-01-28T03:10:26.793Z,8.63
2023-01-28T03:13:14.976Z,7.60
2023-01-28T03:16:06.231Z,6.20
2023-01-28T03:18:58.328Z,4.77
2023-01-28T03:21:48.806Z,4.10
2023-01-28T03:24:40.778Z,6.40
2023-01-28T03:27:33.276Z,4.97
2023-01-28T03:30:23.008Z,3.27
2023-01-28T03:33:10.575Z,4.60
2023-01-28T03:35:58.688Z,4.43
2023-01-28T03:38:34.093Z,2.90
2023-01-28T03:41:04.967Z,4.23
2023-01-28T03:43:33.740Z,4.40
2023-01-28T03:46:02.297Z,4.87
2023-01-28T03:48:31.808Z,3.83
2023-01-28T03:51:00.540Z,3.73
2023-01-28T03:53:29.321Z,3.40
2023-01-28T03:55:57.801Z,6.43
2023-01-28T03:58:46.576Z,3.50
2023-01-28T04:01:15.121Z,3.77
2023-01-28T04:03:44.620Z,3.43
2023-01-28T04:06:12.761Z,3.87
2023-01-28T04:08:46.204Z,4.03
2023-01-28T04:11:16.826Z,4.37
2023-01-28T04:13:45.302Z,3.47
2023-01-28T04:16:15.316Z,4.00
2023-01-28T04:18:45.209Z,4.07
2023-01-28T04:21:13.932Z,3.67
2023-01-28T04:23:42.478Z,3.20
2023-01-28T04:26:10.540Z,3.23
2023-01-28T04:28:38.567Z,2.73
2023-01-28T04:31:06.635Z,3.33
2023-01-28T04:33:34.728Z,3.87
2023-01-28T04:36:04.564Z,6.00
2023-01-28T04:38:32.581Z,2.90
2023-01-28T04:41:00.631Z,3.07
2023-01-28T04:43:28.859Z,3.13
2023-01-28T04:45:56.982Z,3.50
2023-01-28T04:48:25.082Z,5.13
2023-01-28T04:50:53.205Z,3.90
2023-01-28T04:53:22.703Z,14.80
2023-01-28T04:55:50.629Z,5.97
2023-01-28T04:58:18.779Z,13.15
2023-01-28T05:00:46.991Z,5.60
2023-01-28T05:03:15.063Z,5.33
2023-01-28T05:05:43.292Z,4.60
2023-01-28T05:08:11.330Z,6.23
2023-01-28T05:10:41.232Z,4.17
2023-01-28T05:13:09.500Z,4.87
2023-01-28T05:15:37.757Z,4.27
2023-01-28T05:18:06.145Z,5.97
2023-01-28T05:20:34.247Z,7.10
2023-01-28T05:23:02.306Z,5.17
2023-01-28T05:25:30.318Z,4.77
2023-01-28T05:27:59.715Z,3.50
2023-01-28T05:30:27.884Z,5.37
2023-01-28T05:32:59.219Z,4.40
2023-01-28T05:35:27.323Z,4.07
2023-01-28T05:37:55.423Z,5.23
2023-01-28T05:40:23.795Z,6.90
2023-01-28T05:42:51.900Z,4.80
2023-01-28T05:45:21.479Z,5.00
2023-01-28T05:47:49.585Z,7.27
2023-01-28T05:50:18.376Z,4.80
2023-01-28T05:52:46.602Z,4.43
2023-01-28T05:55:14.680Z,7.53
2023-01-28T05:57:44.699Z,7.83
2023-01-28T06:00:15.315Z,4.73
2023-01-28T06:02:45.359Z,4.40
2023-01-28T06:05:13.495Z,4.37
2023-01-28T06:07:45.434Z,5.33
2023-01-28T06:10:14.264Z,5.57
2023-01-28T06:12:42.512Z,5.77
2023-01-28T06:15:12.256Z,7.30
2023-01-28T06:17:40.868Z,5.83
2023-01-28T06:20:17.444Z,5.33
2023-01-28T06:22:47.772Z,5.93
2023-01-28T06:25:16.382Z,7.70
2023-01-28T06:27:44.497Z,7.23
2023-01-28T06:30:13.848Z,6.27
2023-01-28T06:32:42.995Z,7.60
2023-01-28T06:35:12.035Z,5.23
2023-01-28T06:37:41.952Z,14.97
2023-01-28T06:40:14.321Z,7.20
2023-01-28T06:42:42.870Z,6.13
2023-01-28T06:45:11.754Z,6.13
2023-01-28T06:47:40.728Z,6.53
2023-01-28T06:50:09.737Z,6.70
2023-01-28T06:52:37.893Z,8.37
2023-01-28T06:55:08.493Z,8.40
2023-01-28T06:57:41.904Z,6.50
2023-01-28T07:00:13.901Z,8.53
2023-01-28T07:02:42.356Z,7.57
2023-01-28T07:05:11.354Z,7.93
2023-01-28T07:07:41.857Z,7.27
2023-01-28T07:10:12.957Z,9.50
2023-01-28T07:12:41.855Z,7.60
2023-01-28T07:15:11.371Z,10.67
2023-01-28T07:17:41.700Z,9.30
2023-01-28T07:20:12.720Z,7.33
2023-01-28T07:22:43.015Z,9.30
2023-01-28T07:25:13.838Z,5.37
2023-01-28T07:27:48.304Z,6.23
2023-01-28T07:30:17.805Z,4.87
2023-01-28T07:32:46.637Z,7.20
2023-01-28T07:35:16.149Z,6.20
2023-01-28T07:37:44.596Z,4.30
2023-01-28T07:40:15.435Z,7.20
2023-01-28T07:42:43.916Z,5.80
2023-01-28T07:45:12.876Z,6.80
2023-01-28T07:47:41.185Z,7.97
2023-01-28T07:50:12.667Z,7.00
2023-01-28T07:52:45.211Z,6.32
2023-01-28T07:55:15.639Z,4.67
2023-01-28T07:57:50.844Z,4.43
2023-01-28T08:00:21.956Z,6.07
2023-01-28T08:02:51.288Z,6.90
2023-01-28T08:05:21.597Z,5.73
2023-01-28T08:07:50.829Z,6.63
2023-01-28T08:10:21.494Z,6.57
2023-01-28T08:12:53.914Z,8.23
2023-01-28T08:15:22.917Z,9.10
2023-01-28T08:17:51.561Z,6.37
2023-01-28T08:20:28.584Z,6.57
2023-01-28T08:23:09.473Z,6.20
2023-01-28T08:25:39.517Z,6.77
2023-01-28T08:28:08.317Z,8.07
2023-01-28T08:30:39.222Z,5.27
2023-01-28T08:33:09.454Z,4.30
2023-01-28T08:35:38.010Z,5.10
2023-01-28T08:38:07.447Z,6.87
2023-01-28T08:40:36.691Z,5.93
2023-01-28T08:43:07.367Z,6.33
2023-01-28T08:45:35.665Z,4.73
2023-01-28T08:48:05.739Z,4.60
2023-01-28T08:50:36.460Z,4.77
2023-01-28T08:53:06.861Z,5.37
2023-01-28T08:55:39.786Z,4.57
2023-01-28T08:58:12.164Z,7.13
2023-01-28T09:00:41.767Z,5.60
2023-01-28T09:03:09.986Z,5.40
2023-01-28T09:05:39.688Z,4.53
2023-01-28T09:08:09.917Z,3.93
2023-01-28T09:10:38.640Z,3.80
2023-01-28T09:13:10.153Z,4.90
2023-01-28T09:15:38.459Z,4.80
2023-01-28T09:18:07.837Z,6.37
2023-01-28T09:20:36.107Z,5.00
2023-01-28T09:23:04.393Z,3.70
2023-01-28T09:25:32.462Z,23.63
2023-01-28T09:28:02.271Z,6.17
2023-01-28T09:30:32.287Z,4.37
2023-01-28T09:33:02.570Z,4.53
2023-01-28T09:35:30.775Z,4.27
2023-01-28T09:38:00.236Z,5.63
2023-01-28T09:40:35.786Z,6.37
2023-01-28T09:43:34.431Z,5.80
2023-01-28T09:46:06.303Z,6.50
2023-01-28T09:48:38.294Z,5.07
2023-01-28T09:51:11.631Z,8.83
2023-01-28T09:53:47.312Z,3.60
2023-01-28T09:56:29.179Z,3.80
2023-01-28T09:58:59.023Z,7.90
2023-01-28T10:01:41.090Z,4.83
2023-01-28T10:04:23.373Z,4.90
2023-01-28T10:07:02.098Z,5.93
2023-01-28T10:09:42.732Z,3.60
2023-01-28T10:12:24.422Z,3.50
2023-01-28T10:15:07.194Z,4.57
2023-01-28T10:17:40.997Z,7.30
2023-01-28T10:20:22.103Z,7.97
2023-01-28T10:22:54.551Z,6.47
2023-01-28T10:25:25.880Z,6.13
2023-01-28T10:27:54.140Z,4.63
2023-01-28T10:30:25.606Z,3.37
2023-01-28T10:33:00.705Z,6.87
2023-01-28T10:35:30.203Z,8.73
2023-01-28T10:38:06.612Z,5.63
2023-01-28T10:40:35.404Z,7.97
2023-01-28T10:43:04.800Z,7.43
2023-01-28T10:45:40.077Z,6.53
2023-01-28T10:48:17.874Z,4.90
2023-01-28T10:50:52.388Z,6.53
2023-01-28T10:53:20.757Z,7.67
2023-01-28T10:55:53.972Z,7.27
2023-01-28T10:58:25.143Z,5.57
2023-01-28T11:01:00.694Z,4.60
2023-01-28T11:03:31.109Z,8.60
2023-01-28T11:06:01.836Z,6.37
2023-01-28T11:08:33.100Z,7.40
2023-01-28T11:11:01.415Z,5.90
2023-01-28T11:13:31.784Z,7.13
2023-01-28T11:16:05.634Z,6.97
2023-01-28T11:18:37.650Z,6.40
2023-01-28T11:21:09.206Z,7.33
2023-01-28T11:23:43.306Z,7.00
2023-01-28T11:26:18.997Z,6.60
2023-01-28T11:28:47.404Z,5.70
2023-01-28T11:31:17.685Z,5.93
2023-01-28T11:33:51.313Z,14.00
2023-01-28T11:36:21.501Z,6.20
2023-01-28T11:38:52.442Z,10.27
2023-01-28T11:41:28.135Z,6.20
2023-01-28T11:43:56.586Z,8.30
2023-01-28T11:46:48.978Z,7.70
2023-01-28T11:49:29.175Z,6.03
2023-01-28T11:52:06.557Z,6.10
2023-01-28T11:54:44.520Z,5.13
2023-01-28T11:57:23.938Z,6.60
2023-01-28T12:00:33.924Z,5.70
2023-01-28T12:03:21.774Z,6.30
2023-01-28T12:05:54.442Z,8.83
2023-01-28T12:08:26.827Z,6.63
2023-01-28T12:11:18.177Z,8.10
2023-01-28T12:14:00.737Z,6.97
2023-01-28T12:16:45.102Z,6.90
2023-01-28T12:19:39.183Z,7.83
2023-01-28T12:22:29.959Z,12.10
2023-01-28T12:25:13.684Z,7.83
2023-01-28T12:27:52.319Z,7.13
2023-01-28T12:30:32.878Z,7.03
2023-01-28T12:33:32.807Z,9.37
2023-01-28T12:36:11.357Z,15.00
2023-01-28T12:38:50.847Z,9.43
2023-01-28T12:41:21.809Z,9.00
2023-01-28T12:43:59.941Z,8.67
2023-01-28T12:46:39.869Z,7.83
2023-01-28T12:49:11.611Z,10.33
2023-01-28T12:51:50.972Z,7.77
2023-01-28T12:54:26.192Z,7.83
2023-01-28T12:56:56.103Z,7.53
2023-01-28T12:59:30.382Z,8.63
2023-01-28T13:02:16.747Z,7.93
2023-01-28T13:04:51.843Z,9.33
2023-01-28T13:07:26.117Z,7.97
2023-01-28T13:10:04.841Z,8.97
2023-01-28T13:12:34.621Z,10.40
2023-01-28T13:15:04.209Z,11.00
2023-01-28T13:17:33.931Z,8.13
2023-01-28T13:20:02.473Z,9.20
2023-01-28T13:22:34.258Z,7.40
2023-01-28T13:25:22.447Z,8.77
2023-01-28T13:27:59.111Z,8.27
2023-01-28T13:30:30.528Z,10.83
2023-01-28T13:33:01.569Z,12.13
2023-01-28T13:35:33.249Z,12.10
2023-01-28T13:38:08.872Z,9.13
2023-01-28T13:40:43.356Z,15.90
2023-01-28T13:43:29.615Z,13.60
2023-01-28T13:45:59.897Z,13.67
2023-01-28T13:48:35.157Z,15.70
2023-01-28T13:51:05.892Z,9.83
2023-01-28T13:53:42.628Z,10.50
2023-01-28T13:56:23.200Z,10.93
2023-01-28T13:59:33.556Z,9.93
2023-01-28T14:02:29.181Z,9.90
2023-01-28T14:05:40.872Z,12.53
2023-01-28T14:08:55.032Z,8.57
2023-01-28T14:11:46.463Z,9.23
2023-01-28T14:14:47.618Z,10.20
2023-01-28T14:17:24.196Z,9.63
2023-01-28T14:19:55.359Z,9.47
2023-01-28T14:22:23.937Z,9.37
2023-01-28T14:24:52.785Z,11.40
2023-01-28T14:27:28.292Z,11.60
2023-01-28T14:30:09.013Z,10.63
2023-01-28T14:32:37.974Z,11.20
2023-01-28T14:35:10.415Z,9.67
2023-01-28T14:37:39.969Z,10.37
2023-01-28T14:40:15.245Z,11.30
2023-01-28T14:42:47.892Z,14.23
2023-01-28T14:45:27.422Z,14.27
2023-01-28T14:48:20.952Z,10.80
2023-01-28T14:51:18.294Z,13.03
2023-01-28T14:54:20.102Z,14.70
2023-01-28T14:57:05.904Z,17.17
2023-01-28T14:59:42.967Z,16.60
2023-01-28T15:02:26.365Z,15.47
2023-01-28T15:04:55.763Z,12.33
2023-01-28T15:07:26.587Z,12.67
2023-01-28T15:10:04.933Z,13.27
2023-01-28T15:12:38.068Z,15.83
2023-01-28T15:15:30.947Z,15.10
2023-01-28T15:18:03.265Z,13.90
2023-01-28T15:20:32.838Z,14.50
2023-01-28T15:23:04.205Z,13.53
2023-01-28T15:25:32.433Z,15.63
2023-01-28T15:28:02.885Z,16.63
2023-01-28T15:30:34.096Z,16.23
2023-01-28T15:33:05.392Z,27.93
2023-01-28T15:35:35.070Z,16.57
2023-01-28T15:38:04.483Z,14.90
2023-01-28T15:40:43.350Z,20.23
2023-01-28T15:43:19.197Z,16.60
2023-01-28T15:45:50.380Z,16.10
2023-01-28T15:48:18.999Z,16.60
2023-01-28T15:50:47.318Z,14.17
2023-01-28T15:53:16.465Z,17.00
2023-01-28T15:55:46.101Z,18.80
2023-01-28T15:58:27.764Z,18.53
2023-01-28T16:01:13.738Z,14.97
2023-01-28T16:03:44.373Z,16.03
2023-01-28T16:06:16.988Z,13.70
2023-01-28T16:08:51.535Z,15.70
2023-01-28T16:11:24.863Z,15.93
2023-01-28T16:13:53.656Z,13.57
2023-01-28T16:16:31.474Z,13.27
2023-01-28T16:19:00.002Z,13.30
2023-01-28T16:21:32.159Z,15.77
2023-01-28T16:24:02.716Z,12.83
2023-01-28T16:26:34.300Z,14.37
2023-01-28T16:29:14.803Z,12.87
2023-01-28T16:31:45.223Z,15.33
2023-01-28T16:34:13.307Z,14.67
2023-01-28T16:36:41.752Z,14.20
2023-01-28T16:39:10.478Z,14.07
2023-01-28T16:41:42.392Z,17.03
2023-01-28T16:44:14.250Z,19.07
2023-01-28T16:46:42.813Z,17.67
2023-01-28T16:49:12.415Z,20.63
2023-01-28T16:51:43.821Z,23.20
2023-01-28T16:54:19.189Z,53.43
2023-01-28T16:56:47.852Z,21.87
2023-01-28T16:59:17.982Z,22.83
2023-01-28T17:01:47.458Z,26.77
2023-01-28T17:04:17.398Z,20.20
2023-01-28T17:06:46.205Z,23.67
2023-01-28T17:09:15.816Z,18.93
2023-01-28T17:11:43.928Z,20.13
2023-01-28T17:14:14.292Z,23.67
2023-01-28T17:16:42.646Z,24.87
2023-01-28T17:19:10.894Z,20.17
2023-01-28T17:21:40.892Z,20.63
2023-01-28T17:24:09.718Z,21.83
2023-01-28T17:26:38.390Z,18.47
2023-01-28T17:29:07.019Z,22.20
2023-01-28T17:31:35.972Z,23.10
2023-01-28T17:34:07.167Z,20.07
2023-01-28T17:36:35.795Z,17.13
2023-01-28T17:39:06.158Z,17.80
2023-01-28T17:41:34.369Z,12.77
2023-01-28T17:44:04.577Z,13.40
2023-01-28T17:46:33.239Z,15.97
2023-01-28T17:49:03.088Z,20.00
2023-01-28T17:51:31.502Z,19.30
2023-01-28T17:53:59.800Z,20.57
2023-01-28T17:56:31.407Z,17.83
2023-01-28T17:59:03.632Z,18.50
2023-01-28T18:01:32.387Z,15.40
2023-01-28T18:04:01.136Z,16.30
2023-01-28T18:06:32.804Z,15.17
2023-01-28T18:09:02.174Z,17.50
2023-01-28T18:11:32.934Z,19.47
2023-01-28T18:14:01.219Z,16.07
2023-01-28T18:16:29.415Z,19.00
2023-01-28T18:18:57.504Z,15.40
2023-01-28T18:21:46.493Z,20.33
2023-01-28T18:24:20.607Z,16.23
2023-01-28T18:26:50.477Z,14.27
2023-01-28T18:29:20.986Z,16.00
2023-01-28T18:31:50.083Z,14.37
2023-01-28T18:34:20.223Z,17.93
2023-01-28T18:36:54.098Z,16.77
2023-01-28T18:39:27.309Z,17.83
2023-01-28T18:42:00.126Z,14.87
2023-01-28T18:44:33.962Z,18.87
2023-01-28T18:47:02.251Z,15.73
2023-01-28T18:49:30.339Z,18.63
2023-01-28T18:52:05.481Z,22.13
2023-01-28T18:54:33.636Z,19.53
2023-01-28T18:57:03.269Z,21.90
2023-01-28T18:59:31.393Z,24.57
2023-01-28T19:01:59.648Z,23.07
2023-01-28T19:04:27.892Z,17.40
2023-01-28T19:06:57.679Z,16.73
2023-01-28T19:09:25.883Z,15.70
2023-01-28T19:11:54.010Z,17.03
2023-01-28T19:14:23.531Z,16.03
2023-01-28T19:16:52.259Z,15.17
2023-01-28T19:19:20.399Z,14.67
2023-01-28T19:21:48.648Z,12.83
2023-01-28T19:24:16.898Z,15.63
2023-01-28T19:26:45.892Z,17.50
2023-01-28T19:29:16.205Z,15.90
2023-01-28T19:31:49.228Z,19.40
2023-01-28T19:34:17.895Z,14.43
2023-01-28T19:36:46.919Z,14.10
2023-01-28T19:39:15.915Z,15.37
2023-01-28T19:41:44.739Z,14.23
2023-01-28T19:44:13.164Z,16.47
2023-01-28T19:46:42.433Z,14.17
2023-01-28T19:49:12.788Z,19.30
2023-01-28T19:51:41.117Z,16.80
2023-01-28T19:54:09.749Z,21.60
2023-01-28T19:56:38.701Z,22.23
2023-01-28T19:59:06.826Z,17.30
2023-01-28T20:01:36.320Z,17.43
2023-01-28T20:04:06.097Z,18.80
2023-01-28T20:06:38.288Z,16.93
2023-01-28T20:09:09.309Z,18.40
2023-01-28T20:11:37.581Z,13.47
2023-01-28T20:14:05.911Z,17.87
2023-01-28T20:16:36.316Z,16.93
2023-01-28T20:19:07.045Z,23.97
2023-01-28T20:21:37.577Z,17.53
2023-01-28T20:24:06.792Z,17.37
2023-01-28T20:26:38.613Z,18.10
2023-01-28T20:29:08.600Z,16.47
2023-01-28T20:31:37.177Z,16.73
2023-01-28T20:34:05.897Z,17.70
2023-01-28T20:36:34.562Z,14.83
2023-01-28T20:39:05.013Z,15.07
2023-01-28T20:41:33.214Z,19.73
2023-01-28T20:44:01.471Z,19.00
2023-01-28T20:46:32.174Z,16.73
2023-01-28T20:49:03.149Z,17.73
2023-01-28T20:51:34.648Z,22.00
2023-01-28T20:54:05.748Z,21.40
2023-01-28T20:56:34.307Z,15.90
2023-01-28T20:59:07.761Z,21.37
2023-01-28T21:01:37.228Z,19.10
2023-01-28T21:04:06.179Z,18.03
2023-01-28T21:06:41.715Z,16.50
2023-01-28T21:09:15.082Z,18.07
2023-01-28T21:11:43.561Z,21.33
2023-01-28T21:14:12.624Z,21.83
2023-01-28T21:16:42.573Z,24.23
2023-01-28T21:19:11.004Z,19.07
2023-01-28T21:21:42.643Z,20.07
2023-01-28T21:24:13.316Z,22.00
2023-01-28T21:26:41.726Z,16.97
2023-01-28T21:29:10.155Z,18.63
2023-01-28T21:31:38.229Z,17.43
2023-01-28T21:34:06.282Z,22.87
2023-01-28T21:36:37.246Z,17.70
2023-01-28T21:39:06.511Z,17.93
2023-01-28T21:41:36.037Z,16.33
2023-01-28T21:44:04.242Z,14.20
2023-01-28T21:46:34.027Z,15.23
2023-01-28T21:49:05.127Z,12.43
2023-01-28T21:51:36.583Z,11.63
2023-01-28T21:54:05.970Z,11.90
2023-01-28T21:56:35.491Z,16.57
2023-01-28T21:59:21.424Z,14.30
2023-01-28T22:01:49.925Z,14.80
2023-01-28T22:04:18.072Z,15.70
2023-01-28T22:06:46.272Z,18.73
2023-01-28T22:09:31.524Z,17.23
2023-01-28T22:14:50.283Z,18.20
2023-01-28T22:17:19.326Z,19.33
2023-01-28T22:19:48.877Z,19.47
2023-01-28T22:22:18.220Z,19.13
2023-01-28T22:24:46.421Z,15.70
2023-01-28T22:27:15.879Z,16.83
2023-01-28T22:29:44.195Z,15.40
2023-01-28T22:32:12.411Z,12.17
2023-01-28T22:34:46.911Z,14.33
2023-01-28T22:37:15.625Z,14.13
2023-01-28T22:39:44.883Z,16.83
2023-01-28T22:42:13.083Z,15.77
2023-01-28T22:44:42.531Z,17.47
2023-01-28T22:47:10.805Z,15.87
2023-01-28T22:49:38.992Z,17.03
2023-01-28T22:52:08.550Z,14.27
2023-01-28T22:54:36.654Z,14.37
2023-01-28T22:57:04.806Z,12.27
2023-01-28T22:59:32.977Z,13.83
2023-01-28T23:02:02.863Z,14.03
2023-01-28T23:04:31.543Z,14.17
2023-01-28T23:06:59.776Z,12.70
2023-01-28T23:09:28.309Z,12.60
2023-01-28T23:11:56.612Z,13.77
2023-01-28T23:14:42.399Z,14.80
2023-01-28T23:17:29.913Z,13.20
2023-01-28T23:20:15.633Z,14.70
2023-01-28T23:23:01.561Z,13.63
2023-01-28T23:25:29.601Z,19.90
2023-01-28T23:27:57.688Z,20.03
2023-01-28T23:30:25.804Z,20.90
2023-01-28T23:32:58.337Z,23.97
2023-01-28T23:35:27.255Z,21.63
2023-01-28T23:37:56.481Z,15.03
2023-01-28T23:40:24.521Z,15.07
2023-01-28T23:42:53.124Z,12.43
2023-01-28T23:45:22.027Z,13.43
2023-01-28T23:47:50.441Z,16.13
2023-01-28T23:50:20.148Z,20.40
2023-01-28T23:52:48.300Z,20.63
2023-01-28T23:55:16.549Z,23.93
